sensor_id;sensor_type;location;lat;lon;timestamp;P1;durP1;ratioP1;P2;durP2;ratioP2
21488;SDS011;10906;45.194;5.684;2022-11-20T06:02:25;5.20;;;3.72;;
21488;SDS011;10906;45.194;5.684;2022-11-20T06:05:09;6.35;;;3.95;;
21488;SDS011;10906;45.194;5.684;2022-11-20T06:07:54;5.28;;;3.50;;
21488;SDS011;10906;45.194;5.684;2022-11-20T06:10:38;4.93;;;3.88;;
21488;SDS011;10906;45.194;5.684;2022-11-20T06:13:23;4.40;;;4.00;;
21488;SDS011;10906;45.194;5.684;2022-11-20T06:16:09;6.65;;;3.72;;
21488;SDS011;10906;45.194;5.684;2022-11-20T06:18:54;7.18;;;4.30;;
21488;SDS011;10906;45.194;5.684;2022-11-20T06:21:38;5.57;;;3.08;;
21488;SDS011;10906;45.194;5.684;2022-11-20T06:24:23;8.63;;;3.67;;
21488;SDS011;10906;45.194;5.684;2022-11-20T06:27:09;6.60;;;3.40;;
21488;SDS011;10906;45.194;5.684;2022-11-20T06:29:53;5.20;;;3.70;;
21488;SDS011;10906;45.194;5.684;2022-11-20T06:32:37;4.70;;;3.40;;
21488;SDS011;10906;45.194;5.684;2022-11-20T06:35:22;7.20;;;5.70;;
21488;SDS011;10906;45.194;5.684;2022-11-20T06:38:07;12.95;;;9.00;;
21488;SDS011;10906;45.194;5.684;2022-11-20T06:40:51;4.65;;;4.13;;
21488;SDS011;10906;45.194;5.684;2022-11-20T06:43:36;4.70;;;3.53;;
21488;SDS011;10906;45.194;5.684;2022-11-20T06:46:20;4.80;;;3.67;;
21488;SDS011;10906;45.194;5.684;2022-11-20T06:49:05;6.65;;;3.50;;
21488;SDS011;10906;45.194;5.684;2022-11-20T06:51:50;4.45;;;3.13;;
21488;SDS011;10906;45.194;5.684;2022-11-20T06:54:34;10.00;;;6.43;;
21488;SDS011;10906;45.194;5.684;2022-11-20T06:57:19;15.85;;;8.60;;
21488;SDS011;10906;45.194;5.684;2022-11-20T07:00:04;10.50;;;7.18;;
21488;SDS011;10906;45.194;5.684;2022-11-20T07:02:49;15.05;;;8.95;;
21488;SDS011;10906;45.194;5.684;2022-11-20T07:05:34;10.02;;;5.85;;
21488;SDS011;10906;45.194;5.684;2022-11-20T07:08:19;10.77;;;5.88;;
21488;SDS011;10906;45.194;5.684;2022-11-20T07:11:04;34.22;;;18.92;;
21488;SDS011;10906;45.194;5.684;2022-11-20T07:13:49;15.68;;;10.30;;
21488;SDS011;10906;45.194;5.684;2022-11-20T07:16:34;11.60;;;6.95;;
21488;SDS011;10906;45.194;5.684;2022-11-20T07:19:18;10.40;;;6.20;;
21488;SDS011;10906;45.194;5.684;2022-11-20T07:22:02;8.48;;;5.43;;
21488;SDS011;10906;45.194;5.684;2022-11-20T07:24:47;9.30;;;6.00;;
21488;SDS011;10906;45.194;5.684;2022-11-20T07:27:32;7.35;;;5.03;;
21488;SDS011;10906;45.194;5.684;2022-11-20T07:30:16;5.25;;;4.25;;
21488;SDS011;10906;45.194;5.684;2022-11-20T07:33:02;6.32;;;4.38;;
21488;SDS011;10906;45.194;5.684;2022-11-20T07:35:46;7.85;;;4.15;;
21488;SDS011;10906;45.194;5.684;2022-11-20T07:38:30;5.80;;;4.20;;
21488;SDS011;10906;45.194;5.684;2022-11-20T07:41:14;6.18;;;4.45;;
21488;SDS011;10906;45.194;5.684;2022-11-20T07:43:58;8.68;;;4.50;;
21488;SDS011;10906;45.194;5.684;2022-11-20T07:46:43;7.72;;;5.38;;
21488;SDS011;10906;45.194;5.684;2022-11-20T07:49:27;7.53;;;4.63;;
21488;SDS011;10906;45.194;5.684;2022-11-20T07:52:11;6.95;;;5.03;;
21488;SDS011;10906;45.194;5.684;2022-11-20T07:54:55;4.30;;;3.90;;
21488;SDS011;10906;45.194;5.684;2022-11-20T07:57:39;6.38;;;4.70;;
21488;SDS011;10906;45.194;5.684;2022-11-20T08:00:24;6.97;;;4.28;;
21488;SDS011;10906;45.194;5.684;2022-11-20T08:03:09;6.10;;;4.95;;
21488;SDS011;10906;45.194;5.684;2022-11-20T08:05:54;7.32;;;5.22;;
21488;SDS011;10906;45.194;5.684;2022-11-20T08:08:42;5.65;;;5.03;;
21488;SDS011;10906;45.194;5.684;2022-11-20T08:11:26;5.80;;;5.20;;
21488;SDS011;10906;45.194;5.684;2022-11-20T08:14:30;7.75;;;5.30;;
21488;SDS011;10906;45.194;5.684;2022-11-20T08:17:14;7.07;;;5.15;;
21488;SDS011;10906;45.194;5.684;2022-11-20T08:19:58;7.72;;;4.82;;
21488;SDS011;10906;45.194;5.684;2022-11-20T08:22:43;9.32;;;5.53;;
21488;SDS011;10906;45.194;5.684;2022-11-20T08:25:28;7.85;;;5.30;;
21488;SDS011;10906;45.194;5.684;2022-11-20T08:28:13;6.18;;;4.20;;
21488;SDS011;10906;45.194;5.684;2022-11-20T08:31:00;5.28;;;4.45;;
21488;SDS011;10906;45.194;5.684;2022-11-20T08:33:46;11.13;;;4.53;;
21488;SDS011;10906;45.194;5.684;2022-11-20T08:36:32;6.15;;;4.22;;
21488;SDS011;10906;45.194;5.684;2022-11-20T08:39:17;7.80;;;4.18;;
21488;SDS011;10906;45.194;5.684;2022-11-20T08:44:50;4.85;;;4.18;;
21488;SDS011;10906;45.194;5.684;2022-11-20T08:47:34;7.18;;;4.15;;
21488;SDS011;10906;45.194;5.684;2022-11-20T08:50:18;6.47;;;3.78;;
21488;SDS011;10906;45.194;5.684;2022-11-20T08:53:03;6.07;;;3.80;;
21488;SDS011;10906;45.194;5.684;2022-11-20T08:55:48;4.38;;;3.10;;
21488;SDS011;10906;45.194;5.684;2022-11-20T08:58:33;4.78;;;3.47;;
21488;SDS011;10906;45.194;5.684;2022-11-20T09:01:21;4.32;;;3.10;;
21488;SDS011;10906;45.194;5.684;2022-11-20T09:04:06;6.20;;;3.42;;
21488;SDS011;10906;45.194;5.684;2022-11-20T09:06:51;7.95;;;3.42;;
21488;SDS011;10906;45.194;5.684;2022-11-20T09:09:35;6.43;;;3.42;;
21488;SDS011;10906;45.194;5.684;2022-11-20T09:12:19;4.30;;;3.30;;
21488;SDS011;10906;45.194;5.684;2022-11-20T09:15:04;4.43;;;2.83;;
21488;SDS011;10906;45.194;5.684;2022-11-20T09:20:42;6.28;;;3.13;;
21488;SDS011;10906;45.194;5.684;2022-11-20T09:23:26;3.90;;;3.50;;
21488;SDS011;10906;45.194;5.684;2022-11-20T09:26:14;5.75;;;3.40;;
21488;SDS011;10906;45.194;5.684;2022-11-20T09:28:59;6.60;;;3.58;;
21488;SDS011;10906;45.194;5.684;2022-11-20T09:31:49;4.80;;;3.30;;
21488;SDS011;10906;45.194;5.684;2022-11-20T09:34:33;4.95;;;3.30;;
21488;SDS011;10906;45.194;5.684;2022-11-20T09:37:21;5.03;;;3.22;;
21488;SDS011;10906;45.194;5.684;2022-11-20T09:40:06;4.38;;;3.00;;
21488;SDS011;10906;45.194;5.684;2022-11-20T09:44:02;4.00;;;3.15;;
21488;SDS011;10906;45.194;5.684;2022-11-20T09:46:28;5.80;;;3.28;;
21488;SDS011;10906;45.194;5.684;2022-11-20T09:55:38;3.30;;;2.72;;
21488;SDS011;10906;45.194;5.684;2022-11-20T10:01:38;3.47;;;2.25;;
21488;SDS011;10906;45.194;5.684;2022-11-20T10:04:24;3.00;;;2.33;;
21488;SDS011;10906;45.194;5.684;2022-11-20T10:07:12;4.63;;;2.47;;
21488;SDS011;10906;45.194;5.684;2022-11-20T10:11:17;3.60;;;2.15;;
21488;SDS011;10906;45.194;5.684;2022-11-20T10:31:56;3.00;;;1.85;;
21488;SDS011;10906;45.194;5.684;2022-11-20T10:37:34;4.00;;;1.98;;
21488;SDS011;10906;45.194;5.684;2022-11-20T10:43:13;3.95;;;2.50;;
21488;SDS011;10906;45.194;5.684;2022-11-20T10:46:17;4.18;;;2.17;;
21488;SDS011;10906;45.194;5.684;2022-11-20T10:49:24;3.72;;;2.17;;
21488;SDS011;10906;45.194;5.684;2022-11-20T10:52:11;4.53;;;1.95;;
21488;SDS011;10906;45.194;5.684;2022-11-20T11:01:16;4.93;;;2.28;;
21488;SDS011;10906;45.194;5.684;2022-11-20T11:04:01;1.88;;;1.52;;
21488;SDS011;10906;45.194;5.684;2022-11-20T11:06:46;2.40;;;1.67;;
21488;SDS011;10906;45.194;5.684;2022-11-20T11:09:34;3.05;;;1.65;;
21488;SDS011;10906;45.194;5.684;2022-11-20T11:12:28;4.53;;;1.80;;
21488;SDS011;10906;45.194;5.684;2022-11-20T11:15:29;3.55;;;1.80;;
21488;SDS011;10906;45.194;5.684;2022-11-20T11:18:27;3.78;;;1.90;;
21488;SDS011;10906;45.194;5.684;2022-11-20T11:21:23;2.70;;;1.33;;
21488;SDS011;10906;45.194;5.684;2022-11-20T11:24:15;2.47;;;1.75;;
21488;SDS011;10906;45.194;5.684;2022-11-20T11:27:14;3.05;;;1.85;;
21488;SDS011;10906;45.194;5.684;2022-11-20T11:30:12;2.70;;;2.22;;
21488;SDS011;10906;45.194;5.684;2022-11-20T11:33:05;1.67;;;1.50;;
21488;SDS011;10906;45.194;5.684;2022-11-20T11:38:41;1.88;;;1.48;;
21488;SDS011;10906;45.194;5.684;2022-11-20T11:41:31;2.50;;;1.67;;
21488;SDS011;10906;45.194;5.684;2022-11-20T11:44:21;4.18;;;2.63;;
21488;SDS011;10906;45.194;5.684;2022-11-20T11:47:32;3.13;;;1.95;;
21488;SDS011;10906;45.194;5.684;2022-11-20T11:50:22;2.25;;;1.65;;
21488;SDS011;10906;45.194;5.684;2022-11-20T11:58:47;4.63;;;1.40;;
21488;SDS011;10906;45.194;5.684;2022-11-20T12:01:38;3.05;;;1.52;;
21488;SDS011;10906;45.194;5.684;2022-11-20T12:14:04;3.72;;;1.80;;
21488;SDS011;10906;45.194;5.684;2022-11-20T12:16:58;3.92;;;1.55;;
21488;SDS011;10906;45.194;5.684;2022-11-20T12:19:44;1.27;;;1.10;;
21488;SDS011;10906;45.194;5.684;2022-11-20T12:23:18;3.85;;;1.60;;
21488;SDS011;10906;45.194;5.684;2022-11-20T12:25:40;1.92;;;1.23;;
21488;SDS011;10906;45.194;5.684;2022-11-20T12:28:44;3.97;;;2.70;;
21488;SDS011;10906;45.194;5.684;2022-11-20T12:31:57;3.13;;;1.35;;
21488;SDS011;10906;45.194;5.684;2022-11-20T12:51:08;3.30;;;1.60;;
21488;SDS011;10906;45.194;5.684;2022-11-20T12:57:38;2.75;;;1.30;;
21488;SDS011;10906;45.194;5.684;2022-11-20T13:00:33;3.28;;;1.58;;
21488;SDS011;10906;45.194;5.684;2022-11-20T13:06:18;1.20;;;1.10;;
21488;SDS011;10906;45.194;5.684;2022-11-20T13:09:02;3.40;;;1.40;;
21488;SDS011;10906;45.194;5.684;2022-11-20T13:14:42;3.03;;;1.50;;
21488;SDS011;10906;45.194;5.684;2022-11-20T13:18:00;2.67;;;1.27;;
21488;SDS011;10906;45.194;5.684;2022-11-20T13:20:48;2.67;;;1.30;;
21488;SDS011;10906;45.194;5.684;2022-11-20T13:23:33;4.18;;;1.10;;
21488;SDS011;10906;45.194;5.684;2022-11-20T13:26:20;3.05;;;1.40;;
21488;SDS011;10906;45.194;5.684;2022-11-20T13:29:24;3.75;;;3.17;;
21488;SDS011;10906;45.194;5.684;2022-11-20T13:32:16;2.17;;;1.50;;
21488;SDS011;10906;45.194;5.684;2022-11-20T13:35:05;2.67;;;1.60;;
21488;SDS011;10906;45.194;5.684;2022-11-20T13:40:56;2.10;;;1.47;;
21488;SDS011;10906;45.194;5.684;2022-11-20T13:43:42;2.72;;;1.20;;
21488;SDS011;10906;45.194;5.684;2022-11-20T13:47:15;3.00;;;1.63;;
21488;SDS011;10906;45.194;5.684;2022-11-20T13:49:45;1.30;;;1.02;;
21488;SDS011;10906;45.194;5.684;2022-11-20T13:55:41;2.00;;;1.35;;
21488;SDS011;10906;45.194;5.684;2022-11-20T14:01:37;3.47;;;1.48;;
21488;SDS011;10906;45.194;5.684;2022-11-20T14:04:35;1.88;;;1.50;;
21488;SDS011;10906;45.194;5.684;2022-11-20T14:07:22;2.60;;;1.60;;
21488;SDS011;10906;45.194;5.684;2022-11-20T14:10:21;2.65;;;1.48;;
21488;SDS011;10906;45.194;5.684;2022-11-20T14:13:18;3.60;;;1.55;;
21488;SDS011;10906;45.194;5.684;2022-11-20T14:16:03;2.88;;;1.98;;
21488;SDS011;10906;45.194;5.684;2022-11-20T14:18:48;2.30;;;1.52;;
21488;SDS011;10906;45.194;5.684;2022-11-20T14:21:33;4.80;;;1.60;;
21488;SDS011;10906;45.194;5.684;2022-11-20T14:24:22;2.28;;;1.67;;
21488;SDS011;10906;45.194;5.684;2022-11-20T14:27:14;1.65;;;1.30;;
21488;SDS011;10906;45.194;5.684;2022-11-20T14:30:02;2.63;;;1.60;;
21488;SDS011;10906;45.194;5.684;2022-11-20T14:32:47;2.13;;;1.50;;
21488;SDS011;10906;45.194;5.684;2022-11-20T14:35:36;2.75;;;1.15;;
21488;SDS011;10906;45.194;5.684;2022-11-20T14:38:28;1.27;;;1.13;;
21488;SDS011;10906;45.194;5.684;2022-11-20T14:41:19;2.17;;;1.33;;
21488;SDS011;10906;45.194;5.684;2022-11-20T14:44:05;4.15;;;2.67;;
21488;SDS011;10906;45.194;5.684;2022-11-20T14:46:52;2.88;;;1.90;;
21488;SDS011;10906;45.194;5.684;2022-11-20T14:49:37;2.50;;;1.42;;
21488;SDS011;10906;45.194;5.684;2022-11-20T14:52:24;2.90;;;1.45;;
21488;SDS011;10906;45.194;5.684;2022-11-20T14:55:12;4.05;;;1.70;;
21488;SDS011;10906;45.194;5.684;2022-11-20T14:58:24;2.42;;;1.15;;
21488;SDS011;10906;45.194;5.684;2022-11-20T15:01:11;2.45;;;1.40;;
21488;SDS011;10906;45.194;5.684;2022-11-20T15:03:59;5.03;;;1.50;;
21488;SDS011;10906;45.194;5.684;2022-11-20T15:06:54;2.25;;;1.15;;
21488;SDS011;10906;45.194;5.684;2022-11-20T15:09:40;4.25;;;1.70;;
21488;SDS011;10906;45.194;5.684;2022-11-20T15:12:25;3.85;;;2.00;;
21488;SDS011;10906;45.194;5.684;2022-11-20T15:15:10;3.22;;;1.95;;
21488;SDS011;10906;45.194;5.684;2022-11-20T15:17:58;3.05;;;1.92;;
21488;SDS011;10906;45.194;5.684;2022-11-20T15:20:43;4.53;;;2.05;;
21488;SDS011;10906;45.194;5.684;2022-11-20T15:23:28;2.53;;;1.65;;
21488;SDS011;10906;45.194;5.684;2022-11-20T15:26:13;5.22;;;2.63;;
21488;SDS011;10906;45.194;5.684;2022-11-20T15:29:08;5.85;;;3.25;;
21488;SDS011;10906;45.194;5.684;2022-11-20T15:31:56;9.02;;;3.17;;
21488;SDS011;10906;45.194;5.684;2022-11-20T15:34:41;6.65;;;3.78;;
21488;SDS011;10906;45.194;5.684;2022-11-20T15:37:26;5.57;;;4.15;;
21488;SDS011;10906;45.194;5.684;2022-11-20T15:40:10;7.30;;;3.90;;
21488;SDS011;10906;45.194;5.684;2022-11-20T15:42:54;6.30;;;3.72;;
21488;SDS011;10906;45.194;5.684;2022-11-20T15:45:49;7.20;;;3.95;;
21488;SDS011;10906;45.194;5.684;2022-11-20T15:48:38;7.80;;;4.18;;
21488;SDS011;10906;45.194;5.684;2022-11-20T15:51:31;9.15;;;4.00;;
21488;SDS011;10906;45.194;5.684;2022-11-20T15:54:19;5.35;;;2.80;;
21488;SDS011;10906;45.194;5.684;2022-11-20T15:57:05;4.57;;;2.20;;
21488;SDS011;10906;45.194;5.684;2022-11-20T15:59:52;5.28;;;2.90;;
21488;SDS011;10906;45.194;5.684;2022-11-20T16:02:36;4.85;;;2.55;;
21488;SDS011;10906;45.194;5.684;2022-11-20T16:05:20;4.95;;;2.60;;
21488;SDS011;10906;45.194;5.684;2022-11-20T16:08:06;5.88;;;2.38;;
21488;SDS011;10906;45.194;5.684;2022-11-20T16:10:50;7.68;;;4.70;;
21488;SDS011;10906;45.194;5.684;2022-11-20T16:13:35;14.10;;;10.68;;
21488;SDS011;10906;45.194;5.684;2022-11-20T16:16:38;4.32;;;3.30;;
21488;SDS011;10906;45.194;5.684;2022-11-20T16:19:23;6.88;;;4.80;;
21488;SDS011;10906;45.194;5.684;2022-11-20T16:22:10;5.88;;;4.03;;
21488;SDS011;10906;45.194;5.684;2022-11-20T16:24:55;4.95;;;2.88;;
21488;SDS011;10906;45.194;5.684;2022-11-20T16:27:39;5.88;;;3.50;;
21488;SDS011;10906;45.194;5.684;2022-11-20T16:30:23;9.07;;;5.78;;
21488;SDS011;10906;45.194;5.684;2022-11-20T16:33:11;14.23;;;9.35;;
21488;SDS011;10906;45.194;5.684;2022-11-20T16:35:57;11.40;;;7.35;;
21488;SDS011;10906;45.194;5.684;2022-11-20T16:38:41;10.55;;;6.40;;
21488;SDS011;10906;45.194;5.684;2022-11-20T16:44:14;13.15;;;9.20;;
21488;SDS011;10906;45.194;5.684;2022-11-20T16:46:58;15.75;;;10.00;;
21488;SDS011;10906;45.194;5.684;2022-11-20T16:49:42;16.17;;;10.82;;
21488;SDS011;10906;45.194;5.684;2022-11-20T16:52:27;9.65;;;6.28;;
21488;SDS011;10906;45.194;5.684;2022-11-20T16:55:12;7.03;;;4.20;;
21488;SDS011;10906;45.194;5.684;2022-11-20T16:57:57;6.78;;;4.00;;
21488;SDS011;10906;45.194;5.684;2022-11-20T17:00:41;6.30;;;3.70;;
21488;SDS011;10906;45.194;5.684;2022-11-20T17:03:26;6.18;;;4.55;;
21488;SDS011;10906;45.194;5.684;2022-11-20T17:06:20;6.63;;;3.80;;
21488;SDS011;10906;45.194;5.684;2022-11-20T17:09:06;9.15;;;5.80;;
21488;SDS011;10906;45.194;5.684;2022-11-20T17:11:52;7.82;;;4.88;;
21488;SDS011;10906;45.194;5.684;2022-11-20T17:14:37;8.02;;;4.28;;
21488;SDS011;10906;45.194;5.684;2022-11-20T17:17:21;6.47;;;4.57;;
21488;SDS011;10906;45.194;5.684;2022-11-20T17:20:06;5.50;;;4.22;;
21488;SDS011;10906;45.194;5.684;2022-11-20T17:22:51;6.63;;;4.03;;
21488;SDS011;10906;45.194;5.684;2022-11-20T17:25:36;7.45;;;4.00;;
21488;SDS011;10906;45.194;5.684;2022-11-20T17:28:21;6.28;;;3.80;;
21488;SDS011;10906;45.194;5.684;2022-11-20T17:31:07;7.60;;;4.30;;
21488;SDS011;10906;45.194;5.684;2022-11-20T17:33:56;6.22;;;3.55;;
21488;SDS011;10906;45.194;5.684;2022-11-20T17:36:43;8.10;;;3.53;;
21488;SDS011;10906;45.194;5.684;2022-11-20T17:39:30;5.35;;;3.40;;
21488;SDS011;10906;45.194;5.684;2022-11-20T17:42:14;6.15;;;3.80;;
21488;SDS011;10906;45.194;5.684;2022-11-20T17:45:12;6.00;;;3.53;;
21488;SDS011;10906;45.194;5.684;2022-11-20T17:47:56;6.00;;;3.10;;
21488;SDS011;10906;45.194;5.684;2022-11-20T17:50:40;8.15;;;3.55;;
21488;SDS011;10906;45.194;5.684;2022-11-20T17:53:24;5.60;;;2.08;;
21488;SDS011;10906;45.194;5.684;2022-11-20T17:56:09;2.83;;;2.08;;
21488;SDS011;10906;45.194;5.684;2022-11-20T17:59:13;2.03;;;1.65;;
21488;SDS011;10906;45.194;5.684;2022-11-20T18:02:01;9.65;;;5.38;;
21488;SDS011;10906;45.194;5.684;2022-11-20T18:04:46;3.85;;;1.92;;
21488;SDS011;10906;45.194;5.684;2022-11-20T18:07:30;1.27;;;0.80;;
21488;SDS011;10906;45.194;5.684;2022-11-20T18:10:15;1.63;;;0.82;;
21488;SDS011;10906;45.194;5.684;2022-11-20T18:13:00;0.95;;;0.70;;
21488;SDS011;10906;45.194;5.684;2022-11-20T18:15:45;0.50;;;0.50;;
21488;SDS011;10906;45.194;5.684;2022-11-20T18:18:29;1.67;;;0.68;;
21488;SDS011;10906;45.194;5.684;2022-11-20T18:21:13;1.52;;;0.60;;
21488;SDS011;10906;45.194;5.684;2022-11-20T18:23:58;1.33;;;0.90;;
21488;SDS011;10906;45.194;5.684;2022-11-20T18:26:42;1.63;;;1.08;;
21488;SDS011;10906;45.194;5.684;2022-11-20T18:29:27;1.15;;;1.02;;
21488;SDS011;10906;45.194;5.684;2022-11-20T18:32:13;22.33;;;14.93;;
21488;SDS011;10906;45.194;5.684;2022-11-20T18:34:58;8.65;;;5.25;;
21488;SDS011;10906;45.194;5.684;2022-11-20T18:37:42;17.08;;;11.05;;
21488;SDS011;10906;45.194;5.684;2022-11-20T18:40:26;44.45;;;30.42;;
21488;SDS011;10906;45.194;5.684;2022-11-20T18:43:10;47.00;;;33.42;;
21488;SDS011;10906;45.194;5.684;2022-11-20T18:46:13;5.28;;;3.45;;
21488;SDS011;10906;45.194;5.684;2022-11-20T18:48:57;3.63;;;1.92;;
21488;SDS011;10906;45.194;5.684;2022-11-20T18:51:41;1.95;;;1.52;;
21488;SDS011;10906;45.194;5.684;2022-11-20T18:54:29;3.33;;;2.08;;
21488;SDS011;10906;45.194;5.684;2022-11-20T18:57:17;5.38;;;1.80;;
21488;SDS011;10906;45.194;5.684;2022-11-20T19:00:24;2.63;;;1.60;;
21488;SDS011;10906;45.194;5.684;2022-11-20T19:17:35;2.35;;;1.50;;
21488;SDS011;10906;45.194;5.684;2022-11-20T19:20:23;2.60;;;2.33;;
21488;SDS011;10906;45.194;5.684;2022-11-20T19:23:08;3.03;;;2.03;;
21488;SDS011;10906;45.194;5.684;2022-11-20T19:25:57;3.45;;;2.13;;
21488;SDS011;10906;45.194;5.684;2022-11-20T19:28:42;2.75;;;2.20;;
21488;SDS011;10906;45.194;5.684;2022-11-20T19:31:27;2.00;;;1.80;;
21488;SDS011;10906;45.194;5.684;2022-11-20T19:34:11;2.03;;;1.60;;
21488;SDS011;10906;45.194;5.684;2022-11-20T19:36:56;3.75;;;2.40;;
21488;SDS011;10906;45.194;5.684;2022-11-20T19:39:43;3.78;;;1.58;;
21488;SDS011;10906;45.194;5.684;2022-11-20T19:42:27;1.63;;;1.42;;
21488;SDS011;10906;45.194;5.684;2022-11-20T19:45:12;3.45;;;2.05;;
21488;SDS011;10906;45.194;5.684;2022-11-20T19:47:56;3.28;;;2.40;;
21488;SDS011;10906;45.194;5.684;2022-11-20T19:50:41;3.33;;;2.00;;
21488;SDS011;10906;45.194;5.684;2022-11-20T19:53:25;1.95;;;1.45;;
21488;SDS011;10906;45.194;5.684;2022-11-20T19:56:09;2.05;;;1.13;;
21488;SDS011;10906;45.194;5.684;2022-11-20T20:01:23;2.38;;;1.50;;
21488;SDS011;10906;45.194;5.684;2022-11-20T20:04:09;2.00;;;1.55;;
21488;SDS011;10906;45.194;5.684;2022-11-20T20:06:53;4.55;;;2.28;;
21488;SDS011;10906;45.194;5.684;2022-11-20T20:09:38;3.47;;;1.90;;
21488;SDS011;10906;45.194;5.684;2022-11-20T20:12:24;3.95;;;2.65;;
21488;SDS011;10906;45.194;5.684;2022-11-20T20:15:08;3.95;;;2.30;;
21488;SDS011;10906;45.194;5.684;2022-11-20T20:17:53;6.18;;;3.35;;
21488;SDS011;10906;45.194;5.684;2022-11-20T20:20:37;9.20;;;4.50;;
21488;SDS011;10906;45.194;5.684;2022-11-20T20:23:22;5.18;;;2.97;;
21488;SDS011;10906;45.194;5.684;2022-11-20T20:26:06;2.88;;;2.28;;
21488;SDS011;10906;45.194;5.684;2022-11-20T20:28:52;4.85;;;2.90;;
21488;SDS011;10906;45.194;5.684;2022-11-20T20:31:36;6.00;;;2.80;;
21488;SDS011;10906;45.194;5.684;2022-11-20T20:34:20;6.13;;;3.60;;
21488;SDS011;10906;45.194;5.684;2022-11-20T20:37:05;5.30;;;3.45;;
21488;SDS011;10906;45.194;5.684;2022-11-20T20:39:52;6.40;;;3.83;;
21488;SDS011;10906;45.194;5.684;2022-11-20T20:42:36;4.90;;;3.67;;
21488;SDS011;10906;45.194;5.684;2022-11-20T20:45:20;16.67;;;7.50;;
21488;SDS011;10906;45.194;5.684;2022-11-20T20:48:05;15.05;;;8.10;;
21488;SDS011;10906;45.194;5.684;2022-11-20T20:50:53;9.55;;;5.63;;
21488;SDS011;10906;45.194;5.684;2022-11-20T20:53:37;8.32;;;4.60;;
21488;SDS011;10906;45.194;5.684;2022-11-20T20:56:22;6.57;;;4.43;;
21488;SDS011;10906;45.194;5.684;2022-11-20T20:59:06;9.65;;;5.45;;
21488;SDS011;10906;45.194;5.684;2022-11-20T21:01:50;6.75;;;4.43;;
21488;SDS011;10906;45.194;5.684;2022-11-20T21:04:35;8.02;;;5.53;;
21488;SDS011;10906;45.194;5.684;2022-11-20T21:07:19;7.40;;;4.75;;
21488;SDS011;10906;45.194;5.684;2022-11-20T21:10:04;6.68;;;4.63;;
21488;SDS011;10906;45.194;5.684;2022-11-20T21:12:49;13.00;;;8.25;;
21488;SDS011;10906;45.194;5.684;2022-11-20T21:15:33;6.82;;;4.50;;
21488;SDS011;10906;45.194;5.684;2022-11-20T21:18:21;8.93;;;5.95;;
21488;SDS011;10906;45.194;5.684;2022-11-20T21:21:07;9.77;;;6.88;;
21488;SDS011;10906;45.194;5.684;2022-11-20T21:24:14;9.27;;;5.82;;
21488;SDS011;10906;45.194;5.684;2022-11-20T21:26:59;7.35;;;4.70;;
21488;SDS011;10906;45.194;5.684;2022-11-20T21:29:44;7.55;;;4.75;;
21488;SDS011;10906;45.194;5.684;2022-11-20T21:32:28;10.32;;;5.55;;
21488;SDS011;10906;45.194;5.684;2022-11-20T21:35:13;10.27;;;6.80;;
21488;SDS011;10906;45.194;5.684;2022-11-20T21:37:58;6.10;;;4.45;;
21488;SDS011;10906;45.194;5.684;2022-11-20T21:40:42;8.35;;;5.60;;
21488;SDS011;10906;45.194;5.684;2022-11-20T21:43:27;9.00;;;5.82;;
21488;SDS011;10906;45.194;5.684;2022-11-20T21:46:12;8.93;;;5.13;;
21488;SDS011;10906;45.194;5.684;2022-11-20T21:48:58;8.25;;;5.10;;
21488;SDS011;10906;45.194;5.684;2022-11-20T21:51:43;8.45;;;6.60;;
21488;SDS011;10906;45.194;5.684;2022-11-20T21:54:27;31.48;;;18.45;;
21488;SDS011;10906;45.194;5.684;2022-11-20T21:57:12;18.67;;;13.00;;
21488;SDS011;10906;45.194;5.684;2022-11-20T21:59:56;14.02;;;8.80;;
21488;SDS011;10906;45.194;5.684;2022-11-20T22:02:40;5.50;;;3.50;;
21488;SDS011;10906;45.194;5.684;2022-11-20T22:05:24;6.88;;;3.30;;
21488;SDS011;10906;45.194;5.684;2022-11-20T22:08:09;9.45;;;6.07;;
21488;SDS011;10906;45.194;5.684;2022-11-20T22:10:58;36.20;;;24.45;;
21488;SDS011;10906;45.194;5.684;2022-11-20T22:13:44;19.88;;;13.73;;
21488;SDS011;10906;45.194;5.684;2022-11-20T22:16:48;19.50;;;12.17;;
21488;SDS011;10906;45.194;5.684;2022-11-20T22:19:33;15.38;;;9.75;;
21488;SDS011;10906;45.194;5.684;2022-11-20T22:22:18;19.35;;;13.00;;
21488;SDS011;10906;45.194;5.684;2022-11-20T22:25:02;15.55;;;10.50;;
21488;SDS011;10906;45.194;5.684;2022-11-20T22:27:47;9.70;;;6.85;;
21488;SDS011;10906;45.194;5.684;2022-11-20T22:30:31;8.25;;;4.45;;
21488;SDS011;10906;45.194;5.684;2022-11-20T22:33:15;7.07;;;4.20;;
21488;SDS011;10906;45.194;5.684;2022-11-20T22:36:09;15.10;;;6.95;;
21488;SDS011;10906;45.194;5.684;2022-11-20T22:39:02;16.52;;;7.78;;
21488;SDS011;10906;45.194;5.684;2022-11-20T22:41:47;19.50;;;8.80;;
21488;SDS011;10906;45.194;5.684;2022-11-20T22:44:31;11.95;;;6.88;;
21488;SDS011;10906;45.194;5.684;2022-11-20T22:49:59;12.40;;;5.22;;
21488;SDS011;10906;45.194;5.684;2022-11-20T22:52:44;12.93;;;7.78;;
21488;SDS011;10906;45.194;5.684;2022-11-20T22:55:28;7.78;;;4.75;;
21488;SDS011;10906;45.194;5.684;2022-11-20T22:58:15;8.40;;;6.68;;
